Time;durP1;ratioP1;P1;durP2;ratioP2;P2;SDS_P1;SDS_P2;PMS_P1;PMS_P2;Temp;Humidity;BMP_temperature;BMP_pressure;BME280_temperature;BME280_humidity;BME280_pressure;Samples;Min_cycle;Max_cycle;Signal;HPM_P1;HPM_P2
2023/12/15 05:44:31;;;;;;;;;;;;;;;-1.68;100.00;100206.89;107368;1280;22541;-55
2023/12/15 05:46:58;;;;;;;;;;;;;;;-1.67;100.00;100207.14;106943;1270;23520;-48
2023/12/15 05:49:24;;;;;;;;;;;;;;;-1.65;100.00;100204.65;109200;1269;22513;-54
2023/12/15 05:51:51;;;;;;;;;;;;;;;-1.61;100.00;100207.91;109711;1270;22697;-54
2023/12/15 05:54:18;;;;;;;;;;;;;;;-1.58;100.00;100206.84;110013;1266;23303;-54
2023/12/15 05:56:44;;;;;;;;;;;;;;;-1.56;100.00;100210.52;108697;1270;22550;-47
2023/12/15 05:59:11;;;;;;;;;;;;;;;-1.53;100.00;100209.46;109314;1269;22696;-48
2023/12/15 06:01:37;;;;;;;;;;;;;;;-1.52;100.00;100225.44;108724;1269;23254;-48
2023/12/15 06:04:04;;;;;;;;;;;;;;;-1.52;100.00;100226.61;109113;1273;22551;-55
2023/12/15 06:06:31;;;;;;;;;;;;;;;-1.52;100.00;100237.06;109536;1278;22507;-50
2023/12/15 06:08:57;;;;;;;;;;;;;;;-1.49;100.00;100239.27;109910;1274;22430;-55
2023/12/15 06:11:24;;;;;;;;;;;;;;;-1.46;100.00;100239.56;109211;1270;22684;-47
2023/12/15 06:13:51;;;;;;;;;;;;;;;-1.45;100.00;100246.11;109849;1279;23477;-47
2023/12/15 06:16:18;;;;;;;;;;;;;;;-1.46;100.00;100250.54;109912;1270;22479;-50
2023/12/15 06:18:45;;;;;;;;;;;;;;;-1.46;100.00;100253.07;109398;1271;22668;-48
2023/12/15 06:21:22;;;;;;;;;;;;;;;-1.45;100.00;100257.60;109442;1273;22492;-56
2023/12/15 06:23:49;;;;;;;;;;;;;;;-1.42;100.00;100244.55;108234;1275;23148;-51
2023/12/15 06:26:21;;;;;;;;;;;;;;;-1.39;100.00;100250.51;108734;1267;22587;-47
2023/12/15 06:28:50;;;;;;;;;;;;;;;-1.38;100.00;100250.92;109272;1273;23023;-48
2023/12/15 06:31:22;;;;;;;;;;;;;;;-1.38;100.00;100254.52;108768;1274;22514;-48
2023/12/15 06:33:52;;;;;;;;;;;;;;;-1.38;100.00;100257.59;108260;1273;22570;-48
2023/12/15 06:36:20;;;;;;;;;;;;;;;-1.39;100.00;100259.59;109523;1280;23292;-55
2023/12/15 06:38:50;;;;;;;;;;;;;;;-1.40;100.00;100262.95;109700;1267;22696;-54
2023/12/15 06:41:17;;;;;;;;;;;;;;;-1.42;100.00;100270.24;108913;1274;23679;-55
2023/12/15 06:43:45;;;;;;;;;;;;;;;-1.44;100.00;100275.95;109001;1276;22518;-53
2023/12/15 06:46:11;;;;;;;;;;;;;;;-1.49;100.00;100275.73;109749;1270;22414;-54
2023/12/15 06:48:38;;;;;;;;;;;;;;;-1.55;100.00;100283.27;109848;1271;22456;-55
2023/12/15 06:51:05;;;;;;;;;;;;;;;-1.59;100.00;100285.30;109802;1274;22406;-54
2023/12/15 06:53:31;;;;;;;;;;;;;;;-1.62;100.00;100289.45;109697;1274;23245;-54
2023/12/15 06:55:58;;;;;;;;;;;;;;;-1.65;100.00;100285.89;109886;1276;22869;-54
2023/12/15 06:58:25;;;;;;;;;;;;;;;-1.68;100.00;100292.59;108915;1271;22527;-54
2023/12/15 07:00:53;;;;;;;;;;;;;;;-1.71;100.00;100293.45;109868;1280;22467;-48
2023/12/15 07:03:20;;;;;;;;;;;;;;;-1.73;100.00;100291.50;109578;1267;22908;-54
2023/12/15 07:05:46;;;;;;;;;;;;;;;-1.73;100.00;100294.38;109863;1265;23284;-49
2023/12/15 07:08:14;;;;;;;;;;;;;;;-1.76;100.00;100300.39;109875;1259;22493;-48
2023/12/15 07:10:41;;;;;;;;;;;;;;;-1.78;100.00;100300.29;109198;1273;22979;-47
2023/12/15 07:13:10;;;;;;;;;;;;;;;-1.81;100.00;100309.53;108902;1273;22888;-53
2023/12/15 07:15:39;;;;;;;;;;;;;;;-1.85;100.00;100304.38;109159;1273;22587;-54
2023/12/15 07:18:06;;;;;;;;;;;;;;;-1.88;100.00;100303.57;108960;1273;22506;-52
2023/12/15 07:20:34;;;;;;;;;;;;;;;-1.88;100.00;100307.52;109466;1273;22635;-55
2023/12/15 07:23:03;;;;;;;;;;;;;;;-1.86;100.00;100317.33;108800;1273;22532;-47
2023/12/15 07:25:31;;;;;;;;;;;;;;;-1.86;100.00;100322.81;109327;1273;23285;-57
2023/12/15 07:27:58;;;;;;;;;;;;;;;-1.86;100.00;100322.64;108983;1274;22491;-56
2023/12/15 07:30:30;;;;;;;;;;;;;;;-1.88;100.00;100326.82;109719;1278;23100;-58
2023/12/15 07:33:04;;;;;;;;;;;;;;;-1.91;100.00;100324.95;109716;1268;23233;-57
2023/12/15 07:35:31;;;;;;;;;;;;;;;-1.92;100.00;100340.45;109679;1270;23223;-48
2023/12/15 07:37:59;;;;;;;;;;;;;;;-1.93;100.00;100350.16;109768;1273;22427;-46
2023/12/15 07:40:26;;;;;;;;;;;;;;;-1.92;100.00;100361.31;109679;1275;22514;-56
2023/12/15 07:42:59;;;;;;;;;;;;;;;-1.89;100.00;100372.08;109623;1270;23107;-56
2023/12/15 07:45:45;;;;;;;;;;;;;;;-1.83;100.00;100385.23;109236;1270;22546;-59
2023/12/15 07:48:26;;;;;;;;;;;;;;;-1.78;100.00;100398.30;109504;1273;23284;-48
2023/12/15 07:50:54;;;;;;;;;;;;;;;-1.77;100.00;100397.48;109680;1267;22445;-48
2023/12/15 07:53:21;;;;;;;;;;;;;;;-1.75;100.00;100405.13;109870;1274;22465;-48
2023/12/15 07:55:48;;;;;;;;;;;;;;;-1.74;100.00;100412.73;109624;1270;22489;-48
2023/12/15 07:58:16;;;;;;;;;;;;;;;-1.73;100.00;100413.27;109768;1271;22987;-48
2023/12/15 08:00:44;;;;;;;;;;;;;;;-1.72;100.00;100418.13;109882;1273;23173;-57
2023/12/15 08:03:10;;;;;;;;;;;;;;;-1.71;100.00;100423.44;109721;1264;22507;-48
2023/12/15 08:05:37;;;;;;;;;;;;;;;-1.72;100.00;100424.77;108853;1280;22597;-49
2023/12/15 08:08:05;;;;;;;;;;;;;;;-1.73;100.00;100424.23;109768;1262;22439;-48
2023/12/15 08:10:35;;;;;;;;;;;;;;;-1.75;100.00;100430.77;109566;1276;22479;-50
2023/12/15 08:13:02;;;;;;;;;;;;;;;-1.79;100.00;100433.13;109031;1273;22748;-51
2023/12/15 08:15:32;;;;;;;;;;;;;;;-1.83;100.00;100436.66;108904;1274;22532;-47
2023/12/15 08:18:00;;;;;;;;;;;;;;;-1.83;100.00;100436.86;109159;1274;22571;-54
2023/12/15 08:20:27;;;;;;;;;;;;;;;-1.80;100.00;100438.70;108802;1275;23086;-47
2023/12/15 08:22:55;;;;;;;;;;;;;;;-1.77;100.00;100438.89;109369;1258;22522;-54
2023/12/15 08:25:21;;;;;;;;;;;;;;;-1.74;100.00;100432.69;109796;1267;23721;-46
2023/12/15 08:27:48;;;;;;;;;;;;;;;-1.72;100.00;100436.73;109445;1261;22506;-55
2023/12/15 08:30:14;;;;;;;;;;;;;;;-1.70;100.00;100439.59;108873;1271;22478;-47
2023/12/15 08:32:43;;;;;;;;;;;;;;;-1.66;100.00;100439.12;109597;1269;22530;-48
2023/12/15 08:35:17;;;;;;;;;;;;;;;-1.63;100.00;100438.58;109121;1276;22490;-47
2023/12/15 08:37:43;;;;;;;;;;;;;;;-1.60;100.00;100439.73;108783;1272;23040;-47
2023/12/15 08:40:11;;;;;;;;;;;;;;;-1.59;100.00;100439.95;109160;1273;22568;-48
2023/12/15 08:42:43;;;;;;;;;;;;;;;-1.58;100.00;100450.60;108419;1274;24434;-55
2023/12/15 08:45:17;;;;;;;;;;;;;;;-1.54;100.00;100448.91;108329;1279;24235;-48
2023/12/15 08:47:43;;;;;;;;;;;;;;;-1.49;100.00;100447.81;109837;1269;22412;-51
2023/12/15 08:50:11;;;;;;;;;;;;;;;-1.47;100.00;100445.87;108819;1269;23017;-47
2023/12/15 08:52:39;;;;;;;;;;;;;;;-1.46;100.00;100449.55;108885;1272;23351;-47
2023/12/15 08:55:11;;;;;;;;;;;;;;;-1.41;100.00;100458.34;109033;1274;23673;-47
2023/12/15 08:57:43;;;;;;;;;;;;;;;-1.37;100.00;100461.13;107365;1274;23856;-52
2023/12/15 09:00:13;;;;;;;;;;;;;;;-1.36;100.00;100469.18;108100;1274;22787;-54
2023/12/15 09:02:45;;;;;;;;;;;;;;;-1.37;100.00;100473.96;108807;1273;22652;-54
2023/12/15 09:05:24;;;;;;;;;;;;;;;-1.35;100.00;100482.94;109164;1273;23488;-55
2023/12/15 09:08:24;;;;;;;;;;;;;;;-1.35;100.00;100486.38;109233;1273;22994;-56
2023/12/15 09:10:53;;;;;;;;;;;;;;;-1.35;100.00;100483.27;108441;1274;22653;-48
2023/12/15 09:13:20;;;;;;;;;;;;;;;-1.33;100.00;100480.28;109644;1273;23329;-49
2023/12/15 09:15:49;;;;;;;;;;;;;;;-1.31;100.00;100479.52;109753;1273;22454;-47
2023/12/15 09:18:22;;;;;;;;;;;;;;;-1.32;100.00;100479.15;109306;1273;22489;-47
2023/12/15 09:20:51;;;;;;;;;;;;;;;-1.31;100.00;100478.15;109325;1273;25959;-55
2023/12/15 09:23:28;;;;;;;;;;;;;;;-1.28;100.00;100488.23;109201;1263;22556;-48
2023/12/15 09:26:25;;;;;;;;;;;;;;;-1.26;100.00;100499.13;108369;1274;23987;-46
2023/12/15 09:28:55;;;;;;;;;;;;;;;-1.26;100.00;100504.77;108878;1274;22515;-54
2023/12/15 09:31:23;;;;;;;;;;;;;;;-1.27;100.00;100509.66;107959;1276;25205;-57
2023/12/15 09:33:50;;;;;;;;;;;;;;;-1.28;100.00;100510.64;108858;1270;23325;-55
2023/12/15 09:36:18;;;;;;;;;;;;;;;-1.28;100.00;100509.82;109159;1273;22884;-56
2023/12/15 09:38:47;;;;;;;;;;;;;;;-1.25;100.00;100508.44;109700;1270;22617;-54
2023/12/15 09:41:23;;;;;;;;;;;;;;;-1.21;100.00;100514.98;108215;1273;22499;-55
2023/12/15 09:43:57;;;;;;;;;;;;;;;-1.14;100.00;100520.27;108867;1273;22526;-48
2023/12/15 09:46:24;;;;;;;;;;;;;;;-1.07;100.00;100518.92;108425;1267;22538;-47
2023/12/15 09:48:51;;;;;;;;;;;;;;;-1.00;100.00;100517.22;109708;1270;22745;-47
2023/12/15 09:51:25;;;;;;;;;;;;;;;-0.94;100.00;100518.72;108971;1264;23606;-47
2023/12/15 09:53:52;;;;;;;;;;;;;;;-0.87;100.00;100515.98;109477;1273;22519;-54
2023/12/15 09:56:19;;;;;;;;;;;;;;;-0.81;100.00;100515.73;108937;1265;23374;-47
2023/12/15 09:58:48;;;;;;;;;;;;;;;-0.76;100.00;100518.55;108461;1273;22534;-53
2023/12/15 10:01:18;;;;;;;;;;;;;;;-0.71;100.00;100523.95;108954;1273;22904;-46
2023/12/15 10:03:45;;;;;;;;;;;;;;;-0.66;100.00;100535.00;108473;1263;22521;-46
2023/12/15 10:06:13;;;;;;;;;;;;;;;-0.59;100.00;100538.60;109259;1269;22511;-47
2023/12/15 10:08:40;;;;;;;;;;;;;;;-0.50;100.00;100553.60;109653;1272;22566;-55
2023/12/15 10:11:28;;;;;;;;;;;;;;;-0.40;100.00;100560.06;109594;1275;22603;-48
2023/12/15 10:13:57;;;;;;;;;;;;;;;-0.35;100.00;100568.02;109273;1273;22486;-46
2023/12/15 10:16:26;;;;;;;;;;;;;;;-0.28;100.00;100567.31;109119;1272;22872;-55
2023/12/15 10:18:53;;;;;;;;;;;;;;;-0.20;100.00;100573.34;109736;1272;22512;-47
2023/12/15 10:21:20;;;;;;;;;;;;;;;-0.13;100.00;100572.14;109714;1270;23353;-47
2023/12/15 10:23:46;;;;;;;;;;;;;;;-0.07;100.00;100568.50;109939;1270;22442;-55
2023/12/15 10:26:14;;;;;;;;;;;;;;;-0.03;100.00;100570.04;109836;1270;22771;-55
2023/12/15 10:28:42;;;;;;;;;;;;;;;-0.02;100.00;100571.45;109778;1270;23425;-56
2023/12/15 10:31:08;;;;;;;;;;;;;;;-0.05;100.00;100579.05;109508;1260;196107;-48
2023/12/15 10:33:35;;;;;;;;;;;;;;;-0.08;100.00;100584.39;109766;1270;23262;-47
2023/12/15 10:36:02;;;;;;;;;;;;;;;-0.09;100.00;100584.53;109775;1265;22647;-56
2023/12/15 10:38:29;;;;;;;;;;;;;;;-0.07;100.00;100585.43;109736;1273;22546;-54
2023/12/15 10:40:57;;;;;;;;;;;;;;;-0.08;100.00;100587.15;109898;1272;22525;-56
2023/12/15 10:43:23;;;;;;;;;;;;;;;-0.13;100.00;100592.05;109738;1273;22525;-55
2023/12/15 10:45:53;;;;;;;;;;;;;;;-0.17;100.00;100598.86;109580;1270;23324;-48
2023/12/15 10:48:20;;;;;;;;;;;;;;;-0.18;100.00;100598.83;109946;1270;22569;-47
2023/12/15 10:50:47;;;;;;;;;;;;;;;-0.15;100.00;100600.52;109987;1273;23464;-48
2023/12/15 10:53:14;;;;;;;;;;;;;;;-0.10;100.00;100598.52;109334;1273;22904;-50
2023/12/15 10:55:46;;;;;;;;;;;;;;;-0.07;100.00;100601.41;109014;1269;22478;-48
2023/12/15 10:58:13;;;;;;;;;;;;;;;-0.06;100.00;100603.02;109990;1275;22512;-55
2023/12/15 11:00:39;;;;;;;;;;;;;;;-0.06;100.00;100600.95;110072;1272;22992;-55
2023/12/15 11:03:09;;;;;;;;;;;;;;;-0.04;100.00;100607.23;110029;1275;22947;-56
2023/12/15 11:05:36;;;;;;;;;;;;;;;-0.03;100.00;100611.89;109855;1275;22492;-55
2023/12/15 11:08:08;;;;;;;;;;;;;;;-0.03;100.00;100615.34;109639;1272;22506;-46
2023/12/15 11:10:35;;;;;;;;;;;;;;;-0.03;100.00;100618.92;109596;1272;22500;-47
2023/12/15 11:13:04;;;;;;;;;;;;;;;-0.01;100.00;100630.33;109759;1269;22548;-49
2023/12/15 11:15:31;;;;;;;;;;;;;;;-0.01;100.00;100639.60;109751;1272;22470;-55
2023/12/15 11:17:58;;;;;;;;;;;;;;;-0.00;100.00;100648.38;109824;1272;23389;-47
2023/12/15 11:20:25;;;;;;;;;;;;;;;0.01;100.00;100657.52;109918;1272;22440;-55
2023/12/15 11:22:52;;;;;;;;;;;;;;;-0.01;100.00;100663.27;109977;1274;22437;-46
2023/12/15 11:25:20;;;;;;;;;;;;;;;-0.02;100.00;100666.33;109953;1266;22678;-47
2023/12/15 11:27:57;;;;;;;;;;;;;;;0.00;100.00;100670.71;109945;1272;22452;-55
2023/12/15 11:30:30;;;;;;;;;;;;;;;0.03;100.00;100672.20;109951;1271;23197;-47
2023/12/15 11:32:57;;;;;;;;;;;;;;;0.05;100.00;100668.33;109957;1272;22454;-46
2023/12/15 11:35:29;;;;;;;;;;;;;;;0.07;100.00;100670.70;110006;1275;22521;-53
2023/12/15 11:37:57;;;;;;;;;;;;;;;0.14;100.00;100670.48;109992;1272;23168;-47
2023/12/15 11:40:29;;;;;;;;;;;;;;;0.19;100.00;100673.50;109939;1272;22469;-47
2023/12/15 11:42:56;;;;;;;;;;;;;;;0.23;100.00;100679.33;110011;1273;23318;-47
2023/12/15 11:45:24;;;;;;;;;;;;;;;0.24;100.00;100684.56;109773;1271;22602;-54
2023/12/15 11:47:51;;;;;;;;;;;;;;;0.28;100.00;100683.65;109891;1270;22466;-47
2023/12/15 11:50:19;;;;;;;;;;;;;;;0.31;100.00;100693.81;109956;1269;22449;-54
2023/12/15 11:52:47;;;;;;;;;;;;;;;0.34;100.00;100698.55;109944;1270;23764;-55
2023/12/15 11:55:15;;;;;;;;;;;;;;;0.33;100.00;100697.83;110014;1267;22450;-55
2023/12/15 11:57:41;;;;;;;;;;;;;;;0.33;100.00;100701.41;110032;1267;22431;-56
2023/12/15 12:00:09;;;;;;;;;;;;;;;0.34;100.00;100700.61;109521;1270;22514;-48
2023/12/15 12:02:36;;;;;;;;;;;;;;;0.35;100.00;100706.70;109620;1273;22506;-55
2023/12/15 12:05:07;;;;;;;;;;;;;;;0.34;100.00;100710.73;109984;1272;23780;-56
2023/12/15 12:07:35;;;;;;;;;;;;;;;0.29;100.00;100712.55;109724;1271;23196;-47
2023/12/15 12:10:02;;;;;;;;;;;;;;;0.26;100.00;100710.02;109718;1278;23325;-47
2023/12/15 12:12:31;;;;;;;;;;;;;;;0.25;100.00;100712.20;109251;1275;23455;-56
2023/12/15 12:15:03;;;;;;;;;;;;;;;0.24;100.00;100708.90;109856;1277;22560;-46
2023/12/15 12:17:31;;;;;;;;;;;;;;;0.28;100.00;100713.35;109553;1272;22470;-48
2023/12/15 12:20:02;;;;;;;;;;;;;;;0.32;100.00;100718.72;109879;1278;22478;-47
2023/12/15 12:22:29;;;;;;;;;;;;;;;0.36;100.00;100725.25;109844;1273;22540;-56
2023/12/15 12:24:56;;;;;;;;;;;;;;;0.38;100.00;100733.95;109803;1273;22565;-57
2023/12/15 12:27:29;;;;;;;;;;;;;;;0.38;100.00;100743.89;109058;1272;22535;-55
2023/12/15 12:29:55;;;;;;;;;;;;;;;0.36;100.00;100749.13;109727;1269;22494;-46
2023/12/15 12:32:23;;;;;;;;;;;;;;;0.35;100.00;100758.52;109982;1272;22533;-49
2023/12/15 12:34:50;;;;;;;;;;;;;;;0.34;100.00;100764.79;109965;1273;22487;-49
2023/12/15 12:37:20;;;;;;;;;;;;;;;0.31;100.00;100777.17;109920;1267;22557;-47
2023/12/15 12:39:47;;;;;;;;;;;;;;;0.27;100.00;100782.48;109940;1270;23068;-49
2023/12/15 12:42:14;;;;;;;;;;;;;;;0.23;100.00;100801.52;109324;1272;22576;-47
2023/12/15 12:44:43;;;;;;;;;;;;;;;0.19;100.00;100794.94;109036;1272;22873;-56
2023/12/15 12:47:10;;;;;;;;;;;;;;;0.15;99.98;100806.92;109476;1272;22610;-55
2023/12/15 12:49:39;;;;;;;;;;;;;;;0.10;99.93;100802.77;109467;1273;22507;-55
2023/12/15 12:52:21;;;;;;;;;;;;;;;0.07;99.91;100813.60;109012;1272;24198;-55
2023/12/15 12:54:49;;;;;;;;;;;;;;;0.05;99.70;100819.77;109723;1272;22516;-46
2023/12/15 12:57:17;;;;;;;;;;;;;;;0.02;99.87;100822.08;109138;1269;22484;-54
2023/12/15 12:59:46;;;;;;;;;;;;;;;-0.00;99.95;100824.70;109108;1272;22491;-54
2023/12/15 13:02:13;;;;;;;;;;;;;;;-0.02;100.00;100821.89;109889;1273;23014;-50
2023/12/15 13:04:49;;;;;;;;;;;;;;;-0.01;100.00;100824.63;109733;1276;23077;-46
2023/12/15 13:07:16;;;;;;;;;;;;;;;-0.02;100.00;100824.10;109921;1267;23774;-54
2023/12/15 13:09:43;;;;;;;;;;;;;;;-0.02;100.00;100820.67;109976;1273;22587;-54
2023/12/15 13:12:17;;;;;;;;;;;;;;;-0.02;100.00;100819.84;110024;1278;23334;-47
2023/12/15 13:14:45;;;;;;;;;;;;;;;-0.01;100.00;100823.30;109965;1267;22449;-46
2023/12/15 13:17:12;;;;;;;;;;;;;;;-0.00;100.00;100822.13;109913;1270;22901;-47
2023/12/15 13:19:39;;;;;;;;;;;;;;;-0.01;100.00;100821.58;109824;1269;22900;-48
2023/12/15 13:22:09;;;;;;;;;;;;;;;-0.02;99.92;100817.41;109951;1270;22637;-47
2023/12/15 13:24:35;;;;;;;;;;;;;;;-0.05;99.95;100818.83;109938;1273;22528;-55
2023/12/15 13:27:20;;;;;;;;;;;;;;;-0.07;99.98;100820.59;110011;1268;22502;-47
2023/12/15 13:29:48;;;;;;;;;;;;;;;-0.11;99.98;100825.04;110026;1267;23385;-55
2023/12/15 13:32:16;;;;;;;;;;;;;;;-0.15;100.00;100827.56;110013;1278;22524;-55
2023/12/15 13:34:43;;;;;;;;;;;;;;;-0.19;100.00;100836.39;110063;1278;23085;-47
2023/12/15 13:37:10;;;;;;;;;;;;;;;-0.25;100.00;100843.84;110071;1273;22457;-55
2023/12/15 13:39:36;;;;;;;;;;;;;;;-0.29;100.00;100850.17;110104;1278;22454;-54
2023/12/15 13:42:03;;;;;;;;;;;;;;;-0.32;100.00;100861.29;110111;1278;22432;-48
2023/12/15 13:44:30;;;;;;;;;;;;;;;-0.35;100.00;100867.66;110127;1267;22721;-55
2023/12/15 13:46:57;;;;;;;;;;;;;;;-0.38;100.00;100875.20;109912;1278;22450;-55
2023/12/15 13:49:27;;;;;;;;;;;;;;;-0.41;100.00;100878.46;109541;1278;22938;-47
2023/12/15 13:51:54;;;;;;;;;;;;;;;-0.44;100.00;100878.50;107221;1278;23268;-46
2023/12/15 13:54:20;;;;;;;;;;;;;;;-0.47;100.00;100882.79;106922;1278;25386;-47
2023/12/15 13:56:47;;;;;;;;;;;;;;;-0.49;100.00;100887.80;107970;1278;22611;-54
2023/12/15 13:59:14;;;;;;;;;;;;;;;-0.53;100.00;100891.20;107032;1278;25287;-47
2023/12/15 14:01:41;;;;;;;;;;;;;;;-0.56;100.00;100891.92;107216;1278;25454;-46
2023/12/15 14:04:08;;;;;;;;;;;;;;;-0.58;100.00;100896.58;107387;1268;26501;-54
2023/12/15 14:06:35;;;;;;;;;;;;;;;-0.60;100.00;100905.21;107730;1278;22515;-46
2023/12/15 14:09:02;;;;;;;;;;;;;;;-0.62;100.00;100905.96;108874;1265;22523;-56
2023/12/15 14:11:29;;;;;;;;;;;;;;;-0.65;100.00;100903.56;107283;1278;22590;-49
2023/12/15 14:13:56;;;;;;;;;;;;;;;-0.68;100.00;100899.29;107414;1278;26447;-56
2023/12/15 14:16:23;;;;;;;;;;;;;;;-0.71;100.00;100901.18;107369;1278;24204;-49
2023/12/15 14:19:08;;;;;;;;;;;;;;;-0.76;100.00;100904.33;108513;1270;23293;-55
2023/12/15 14:21:35;;;;;;;;;;;;;;;-0.79;100.00;100911.55;108317;1279;25291;-56
2023/12/15 14:24:02;;;;;;;;;;;;;;;-0.81;100.00;100919.29;107148;1266;25312;-47
2023/12/15 14:26:29;;;;;;;;;;;;;;;-0.84;100.00;100922.75;107581;1278;22639;-47
2023/12/15 14:28:56;;;;;;;;;;;;;;;-0.86;100.00;100926.77;108253;1279;26542;-53
2023/12/15 14:31:23;;;;;;;;;;;;;;;-0.86;100.00;100930.17;109618;1265;24191;-55
2023/12/15 14:33:49;;;;;;;;;;;;;;;-0.86;100.00;100930.17;108770;1267;24337;-47
2023/12/15 14:36:17;;;;;;;;;;;;;;;-0.86;100.00;100931.58;109136;1278;23330;-47
2023/12/15 14:38:44;;;;;;;;;;;;;;;-0.85;100.00;100938.46;108498;1278;22517;-48
2023/12/15 14:41:11;;;;;;;;;;;;;;;-0.84;100.00;100933.73;107684;1278;24302;-49
2023/12/15 14:43:38;;;;;;;;;;;;;;;-0.83;100.00;100937.91;107501;1272;24308;-55
2023/12/15 14:46:05;;;;;;;;;;;;;;;-0.81;100.00;100937.98;107333;1278;22494;-55
2023/12/15 14:48:32;;;;;;;;;;;;;;;-0.81;100.00;100939.21;107884;1279;22757;-56
2023/12/15 14:50:59;;;;;;;;;;;;;;;-0.79;100.00;100937.73;108259;1278;22516;-56
2023/12/15 14:53:26;;;;;;;;;;;;;;;-0.77;100.00;100940.91;107476;1278;25630;-56
2023/12/15 14:55:53;;;;;;;;;;;;;;;-0.75;100.00;100941.69;106890;1278;22511;-56
2023/12/15 14:58:20;;;;;;;;;;;;;;;-0.74;100.00;100941.46;107166;1278;22513;-48
2023/12/15 15:00:46;;;;;;;;;;;;;;;-0.71;100.00;100941.77;107909;1269;22675;-49
2023/12/15 15:03:13;;;;;;;;;;;;;;;-0.68;100.00;100943.02;107126;1275;22514;-56
2023/12/15 15:05:40;;;;;;;;;;;;;;;-0.66;100.00;100944.15;107707;1278;23224;-55
2023/12/15 15:08:07;;;;;;;;;;;;;;;-0.62;100.00;100941.59;106970;1278;25431;-47
2023/12/15 15:10:34;;;;;;;;;;;;;;;-0.59;100.00;100943.98;107968;1267;22548;-48
2023/12/15 15:13:02;;;;;;;;;;;;;;;-0.56;100.00;100948.29;107444;1278;22513;-57
2023/12/15 15:15:29;;;;;;;;;;;;;;;-0.52;100.00;100950.88;107304;1272;22539;-46
